Time;durP1;ratioP1;P1;durP2;ratioP2;P2;SDS_P1;SDS_P2;PMS_P1;PMS_P2;Temp;Humidity;BMP_temperature;BMP_pressure;BME280_temperature;BME280_humidity;BME280_pressure;Samples;Min_cycle;Max_cycle;Signal;HPM_P1;HPM_P2
2023/01/27 00:01:13;;;;;;;35.95;16.65;;;;;;;-144.31;100.00;58022.63;5010001;28;20120;-57
2023/01/27 00:04:37;;;;;;;31.55;16.23;;;;;;;-144.31;100.00;58022.63;5017921;28;20041;-52
2023/01/27 00:08:01;;;;;;;33.70;16.50;;;;;;;-144.31;100.00;58022.63;5013272;28;20275;-52
2023/01/27 00:15:09;;;;;;;33.97;15.05;;;;;;;-144.31;100.00;58022.63;5011874;28;20042;-56
2023/01/27 00:18:33;;;;;;;37.03;16.10;;;;;;;-144.31;100.00;58022.63;5011756;28;20446;-55
2023/01/27 00:25:40;;;;;;;31.35;15.48;;;;;;;-144.31;100.00;58022.63;5012341;28;20033;-51
2023/01/27 00:29:03;;;;;;;30.63;15.10;;;;;;;-144.31;100.00;58022.63;5014755;28;20069;-52
2023/01/27 00:36:12;;;;;;;30.33;14.63;;;;;;;-144.31;100.00;58022.63;5004069;28;20471;-52
2023/01/27 00:39:36;;;;;;;29.08;14.13;;;;;;;-144.31;100.00;58022.63;5017465;28;20044;-53
2023/01/27 00:43:00;;;;;;;37.20;18.33;;;;;;;-144.31;100.00;58022.63;5012042;28;20038;-56
2023/01/27 00:46:24;;;;;;;33.90;13.57;;;;;;;-144.31;100.00;58022.63;5025307;28;20041;-50
2023/01/27 00:49:48;;;;;;;32.85;15.88;;;;;;;-144.31;100.00;58022.63;5013001;28;20034;-55
2023/01/27 00:53:12;;;;;;;32.63;15.80;;;;;;;-144.31;100.00;58022.63;5015692;28;20037;-52
2023/01/27 00:56:36;;;;;;;37.80;16.05;;;;;;;-144.31;100.00;58022.63;5019490;28;20095;-52
2023/01/27 01:00:02;;;;;;;31.77;15.95;;;;;;;-144.31;100.00;58022.63;5014106;28;20095;-55
2023/01/27 01:03:30;;;;;;;34.03;16.33;;;;;;;-144.31;100.00;58022.63;5016131;28;20053;-57
2023/01/27 01:06:54;;;;;;;37.83;16.25;;;;;;;-144.31;100.00;58022.63;5012799;28;20041;-57
2023/01/27 01:10:18;;;;;;;35.17;16.77;;;;;;;-144.31;100.00;58022.63;5012459;28;20096;-57
2023/01/27 01:13:43;;;;;;;37.55;17.23;;;;;;;-144.31;100.00;58022.63;5012240;28;20659;-52
2023/01/27 01:17:14;;;;;;;32.35;15.48;;;;;;;-144.31;100.00;58022.63;5013778;28;20046;-55
2023/01/27 01:20:40;;;;;;;34.00;15.15;;;;;;;-144.31;100.00;58022.63;5008110;28;20061;-54
2023/01/27 01:24:05;;;;;;;36.35;15.93;;;;;;;-144.31;100.00;58022.63;5012162;28;20034;-52
2023/01/27 01:27:29;;;;;;;34.00;15.88;;;;;;;-144.31;100.00;58022.63;5010171;28;20061;-59
2023/01/27 01:30:52;;;;;;;34.72;16.20;;;;;;;-144.31;100.00;58022.63;5021999;28;20151;-57
2023/01/27 01:34:17;;;;;;;33.13;15.63;;;;;;;-144.31;100.00;58022.63;5008394;28;20145;-55
2023/01/27 01:37:41;;;;;;;32.90;14.85;;;;;;;-144.31;100.00;58022.63;5012907;28;20542;-56
2023/01/27 01:41:06;;;;;;;33.75;14.20;;;;;;;-144.31;100.00;58022.63;5012806;28;20037;-55
2023/01/27 01:44:31;;;;;;;35.75;15.73;;;;;;;-144.31;100.00;58022.63;5011594;28;20033;-52
2023/01/27 01:48:03;;;;;;;27.98;13.15;;;;;;;-144.31;100.00;58022.63;5012284;28;20038;-54
2023/01/27 01:51:33;;;;;;;29.60;13.90;;;;;;;-144.31;100.00;58022.63;5026774;28;20053;-56
2023/01/27 01:54:57;;;;;;;30.13;13.63;;;;;;;-144.31;100.00;58022.63;5012971;28;20038;-56
2023/01/27 01:58:30;;;;;;;29.70;14.00;;;;;;;-144.31;100.00;58022.63;5003594;28;20381;-52
2023/01/27 02:01:56;;;;;;;30.23;14.35;;;;;;;-144.31;100.00;58022.63;5009756;28;20466;-51
2023/01/27 02:05:26;;;;;;;31.90;13.98;;;;;;;-144.31;100.00;58022.63;4991417;28;20042;-57
2023/01/27 02:09:00;;;;;;;33.00;13.35;;;;;;;-144.31;100.00;58022.63;5021029;28;20826;-50
2023/01/27 02:12:26;;;;;;;29.08;13.95;;;;;;;-144.31;100.00;58022.63;5015454;28;20550;-49
2023/01/27 02:15:51;;;;;;;31.65;14.25;;;;;;;-144.31;100.00;58022.63;5010818;28;20041;-55
2023/01/27 02:19:36;;;;;;;31.88;13.60;;;;;;;-144.31;100.00;58022.63;5014339;28;20045;-57
2023/01/27 02:23:19;;;;;;;31.77;14.65;;;;;;;-144.31;100.00;58022.63;5013546;28;20503;-56
2023/01/27 02:26:47;;;;;;;25.92;13.50;;;;;;;-144.31;100.00;58022.63;5020195;28;20038;-55
2023/01/27 02:30:12;;;;;;;32.38;13.63;;;;;;;-144.31;100.00;58022.63;5023392;28;20049;-58
2023/01/27 02:33:37;;;;;;;29.65;12.57;;;;;;;-144.31;100.00;58022.63;5019414;28;20049;-52
2023/01/27 02:37:05;;;;;;;27.80;12.18;;;;;;;-144.31;100.00;58022.63;5015025;28;20423;-52
2023/01/27 02:40:35;;;;;;;28.60;12.82;;;;;;;-144.31;100.00;58022.63;5011749;28;20037;-53
2023/01/27 02:44:02;;;;;;;31.00;13.32;;;;;;;-144.31;100.00;58022.63;5014198;28;20087;-53
2023/01/27 02:47:26;;;;;;;30.35;13.82;;;;;;;-144.31;100.00;58022.63;5009785;28;20051;-55
2023/01/27 02:50:50;;;;;;;30.85;14.80;;;;;;;-144.31;100.00;58022.63;4996201;28;20045;-58
2023/01/27 02:54:14;;;;;;;24.98;11.60;;;;;;;-144.31;100.00;58022.63;5014778;28;20064;-55
2023/01/27 02:57:39;;;;;;;31.67;12.98;;;;;;;-144.31;100.00;58022.63;5011865;28;20502;-54
2023/01/27 03:01:35;;;;;;;28.15;13.70;;;;;;;-144.31;100.00;58022.63;5014744;28;20072;-55
2023/01/27 03:04:59;;;;;;;29.83;12.88;;;;;;;-144.31;100.00;58022.63;5016498;28;20561;-57
2023/01/27 03:08:24;;;;;;;29.30;13.38;;;;;;;-144.31;100.00;58022.63;4995734;28;20084;-53
2023/01/27 03:19:14;;;;;;;28.65;11.50;;;;;;;-144.31;100.00;58022.63;5009768;28;20056;-53
2023/01/27 03:22:38;;;;;;;29.27;13.25;;;;;;;-144.31;100.00;58022.63;5016998;28;20065;-55
2023/01/27 03:26:05;;;;;;;28.15;11.93;;;;;;;-144.31;100.00;58022.63;5016300;28;20037;-54
2023/01/27 03:33:12;;;;;;;34.28;14.48;;;;;;;-144.31;100.00;58022.63;5013744;28;20067;-49
2023/01/27 03:48:06;;;;;;;27.95;12.55;;;;;;;-144.31;100.00;58022.63;5011218;28;20056;-56
2023/01/27 03:51:30;;;;;;;27.98;12.55;;;;;;;-144.31;100.00;58022.63;5000712;28;20121;-50
2023/01/27 03:54:54;;;;;;;27.98;13.18;;;;;;;-144.31;100.00;58022.63;5012080;28;20039;-56
2023/01/27 03:58:28;;;;;;;31.95;14.30;;;;;;;-144.31;100.00;58022.63;5013427;28;20034;-52
2023/01/27 04:09:25;;;;;;;29.75;12.65;;;;;;;-144.31;100.00;58022.63;5011700;28;20038;-49
2023/01/27 04:12:49;;;;;;;27.50;12.13;;;;;;;-144.31;100.00;58022.63;5017506;28;20029;-53
2023/01/27 04:16:13;;;;;;;24.90;12.02;;;;;;;-144.31;100.00;58022.63;5010273;28;20173;-53
2023/01/27 04:19:37;;;;;;;26.30;12.32;;;;;;;-144.31;100.00;58022.63;5012659;28;20046;-55
2023/01/27 04:23:02;;;;;;;26.38;11.52;;;;;;;-144.31;100.00;58022.63;5011689;28;20043;-55
2023/01/27 04:26:32;;;;;;;27.85;12.80;;;;;;;-144.31;100.00;58022.63;5011600;28;20044;-55
2023/01/27 04:29:59;;;;;;;26.23;13.00;;;;;;;-144.31;100.00;58022.63;5011865;28;20546;-54
2023/01/27 04:33:23;;;;;;;28.40;13.52;;;;;;;-144.31;100.00;58022.63;5015352;28;20062;-53
2023/01/27 04:36:47;;;;;;;33.72;13.48;;;;;;;-144.31;100.00;58022.63;5011789;28;20049;-51
2023/01/27 04:40:12;;;;;;;30.13;13.85;;;;;;;-144.31;100.00;58022.63;5012588;28;20046;-52
2023/01/27 04:43:36;;;;;;;29.70;12.80;;;;;;;-144.31;100.00;58022.63;5012792;28;20038;-50
2023/01/27 04:47:00;;;;;;;26.88;13.00;;;;;;;-144.31;100.00;58022.63;5010333;28;20746;-53
2023/01/27 04:50:24;;;;;;;27.95;13.48;;;;;;;-144.31;100.00;58022.63;5011818;28;20035;-55
2023/01/27 04:53:48;;;;;;;28.50;13.30;;;;;;;-144.31;100.00;58022.63;5011726;28;20033;-56
2023/01/27 04:57:20;;;;;;;25.05;11.82;;;;;;;-144.31;100.00;58022.63;5011919;28;20045;-55
2023/01/27 05:00:44;;;;;;;23.67;11.80;;;;;;;-144.31;100.00;58022.63;5010128;28;20132;-53
2023/01/27 05:04:08;;;;;;;27.50;11.63;;;;;;;-144.31;100.00;58022.63;5008213;28;20493;-54
2023/01/27 05:07:32;;;;;;;27.40;11.73;;;;;;;-144.31;100.00;58022.63;5015104;28;20041;-52
2023/01/27 05:10:56;;;;;;;28.33;12.43;;;;;;;-144.31;100.00;58022.63;5010620;28;20084;-54
2023/01/27 05:14:22;;;;;;;24.60;11.85;;;;;;;-144.31;100.00;58022.63;5016885;28;20042;-51
2023/01/27 05:17:46;;;;;;;23.00;10.88;;;;;;;-144.31;100.00;58022.63;5014252;28;20037;-48
2023/01/27 05:21:15;;;;;;;20.40;9.77;;;;;;;-144.31;100.00;58022.63;5009554;28;20050;-50
2023/01/27 05:24:39;;;;;;;24.70;12.00;;;;;;;-144.31;100.00;58022.63;5008718;28;20046;-53
2023/01/27 05:28:03;;;;;;;24.05;10.90;;;;;;;-144.31;100.00;58022.63;5010451;28;20041;-51
2023/01/27 05:31:30;;;;;;;23.25;10.80;;;;;;;-144.31;100.00;58022.63;5009750;28;20144;-53
2023/01/27 05:34:55;;;;;;;24.08;11.77;;;;;;;-144.31;100.00;58022.63;5010815;28;20080;-56
2023/01/27 05:38:19;;;;;;;24.40;11.63;;;;;;;-144.31;100.00;58022.63;5001823;28;20063;-56
2023/01/27 05:41:43;;;;;;;24.33;11.52;;;;;;;-144.31;100.00;58022.63;5012133;28;20033;-54
2023/01/27 05:45:10;;;;;;;27.17;11.45;;;;;;;-144.31;100.00;58022.63;5010815;28;20100;-51
2023/01/27 05:48:35;;;;;;;24.52;11.60;;;;;;;-144.31;100.00;58022.63;5009017;28;20049;-56
2023/01/27 05:51:59;;;;;;;21.92;10.93;;;;;;;-144.31;100.00;58022.63;5012040;28;20083;-56
2023/01/27 05:55:23;;;;;;;21.85;10.63;;;;;;;-144.31;100.00;58022.63;5008419;28;20092;-51
2023/01/27 05:58:47;;;;;;;20.20;10.25;;;;;;;-144.31;100.00;58022.63;5014389;28;20124;-54
2023/01/27 06:02:14;;;;;;;23.60;10.77;;;;;;;-144.31;100.00;58022.63;5014401;28;20045;-55
2023/01/27 06:05:38;;;;;;;21.63;11.40;;;;;;;-144.31;100.00;58022.63;5007405;28;20056;-52
2023/01/27 06:09:02;;;;;;;22.70;11.95;;;;;;;-144.31;100.00;58022.63;5016701;28;20081;-54
2023/01/27 06:12:26;;;;;;;26.90;13.05;;;;;;;-144.31;100.00;58022.63;5014992;28;20077;-53
2023/01/27 06:15:50;;;;;;;26.98;13.75;;;;;;;-144.31;100.00;58022.63;5013858;28;20034;-54
2023/01/27 06:19:15;;;;;;;26.65;12.20;;;;;;;-144.31;100.00;58022.63;5015462;28;20542;-57
2023/01/27 06:22:39;;;;;;;25.77;12.77;;;;;;;-144.31;100.00;58022.63;5011923;28;20752;-51
2023/01/27 06:26:05;;;;;;;29.33;13.52;;;;;;;-144.31;100.00;58022.63;5016014;28;20048;-54
2023/01/27 06:29:29;;;;;;;26.70;13.70;;;;;;;-144.31;100.00;58022.63;5012751;28;20037;-54
2023/01/27 06:32:54;;;;;;;25.77;13.07;;;;;;;-144.31;100.00;58022.63;5017948;28;20037;-57
2023/01/27 06:36:19;;;;;;;26.75;14.43;;;;;;;-144.31;100.00;58022.63;5022591;28;20465;-57
2023/01/27 06:39:44;;;;;;;23.42;12.98;;;;;;;-144.31;100.00;58022.63;5019618;28;20061;-54
2023/01/27 06:43:12;;;;;;;30.25;13.85;;;;;;;-144.31;100.00;58022.63;5012911;28;20049;-51
2023/01/27 06:46:36;;;;;;;28.38;14.02;;;;;;;-144.31;100.00;58022.63;5017260;28;20073;-61
2023/01/27 06:50:00;;;;;;;25.17;12.75;;;;;;;-144.31;100.00;58022.63;5020439;28;20034;-55
2023/01/27 06:53:24;;;;;;;27.25;13.95;;;;;;;-144.31;100.00;58022.63;5016559;28;20136;-51
2023/01/27 06:56:55;;;;;;;24.63;12.35;;;;;;;-144.31;100.00;58022.63;5011179;28;20044;-55
2023/01/27 07:00:19;;;;;;;29.17;12.55;;;;;;;-144.31;100.00;58022.63;5011873;28;20033;-51
2023/01/27 07:03:43;;;;;;;26.30;12.20;;;;;;;-144.31;100.00;58022.63;5015221;28;20040;-51
2023/01/27 07:07:07;;;;;;;29.63;14.63;;;;;;;-144.31;100.00;58022.63;5015580;28;20116;-50
2023/01/27 07:10:31;;;;;;;30.83;14.35;;;;;;;-144.31;100.00;58022.63;5015078;28;20034;-50
2023/01/27 07:14:02;;;;;;;35.88;14.85;;;;;;;-144.31;100.00;58022.63;5014669;28;20092;-51
2023/01/27 07:17:26;;;;;;;33.63;14.07;;;;;;;-144.31;100.00;58022.63;5015402;28;20405;-50
2023/01/27 07:20:50;;;;;;;35.85;14.65;;;;;;;-144.31;100.00;58022.63;5008849;28;20414;-53
2023/01/27 07:24:14;;;;;;;37.97;14.82;;;;;;;-144.31;100.00;58022.63;5009742;28;20079;-56
2023/01/27 07:27:38;;;;;;;32.88;15.40;;;;;;;-144.31;100.00;58022.63;5011783;28;20038;-53
2023/01/27 07:31:02;;;;;;;36.53;14.95;;;;;;;-144.31;100.00;58022.63;5013736;28;20041;-55
2023/01/27 07:34:26;;;;;;;37.63;15.55;;;;;;;-144.31;100.00;58022.63;5010694;28;20065;-56
2023/01/27 07:37:50;;;;;;;42.22;16.35;;;;;;;-144.31;100.00;58022.63;5012075;28;20040;-53
2023/01/27 07:41:14;;;;;;;43.40;16.13;;;;;;;-144.31;100.00;58022.63;5019920;28;20141;-56
2023/01/27 07:44:38;;;;;;;39.97;16.50;;;;;;;-144.31;100.00;58022.63;5013569;28;20050;-51
2023/01/27 07:48:03;;;;;;;41.40;18.17;;;;;;;-144.31;100.00;58022.63;5008281;28;20066;-51
2023/01/27 07:51:27;;;;;;;43.07;17.47;;;;;;;-144.31;100.00;58022.63;5015913;28;20493;-52
2023/01/27 07:54:51;;;;;;;43.25;16.15;;;;;;;-144.31;100.00;58022.63;5015217;28;20038;-53
2023/01/27 07:58:15;;;;;;;45.92;15.98;;;;;;;-144.31;100.00;58022.63;5011705;28;20071;-55
2023/01/27 08:01:40;;;;;;;40.20;16.25;;;;;;;-144.31;100.00;58022.63;5014238;28;20132;-56
2023/01/27 08:05:04;;;;;;;48.58;17.67;;;;;;;-144.31;100.00;58022.63;5010136;28;20042;-52
2023/01/27 08:08:28;;;;;;;48.10;17.48;;;;;;;-144.31;100.00;58022.63;5010513;28;21018;-56
2023/01/27 08:11:56;;;;;;;41.95;17.02;;;;;;;-144.31;100.00;58022.63;5014724;28;20084;-54
2023/01/27 08:15:20;;;;;;;42.03;16.40;;;;;;;-144.31;100.00;58022.63;5014954;28;20456;-53
2023/01/27 08:18:52;;;;;;;40.70;16.67;;;;;;;-144.31;100.00;58022.63;5015581;28;20539;-55
2023/01/27 08:22:19;;;;;;;45.35;16.30;;;;;;;-144.31;100.00;58022.63;5014334;28;20459;-53
2023/01/27 08:25:54;;;;;;;45.13;16.08;;;;;;;-144.31;100.00;58022.63;5013680;28;20484;-56
2023/01/27 08:29:19;;;;;;;38.92;16.33;;;;;;;-144.31;100.00;58022.63;5012911;28;20045;-49
2023/01/27 08:32:44;;;;;;;36.67;14.90;;;;;;;-144.31;100.00;58022.63;5012929;28;20517;-56
2023/01/27 08:36:10;;;;;;;37.15;14.77;;;;;;;-144.31;100.00;58022.63;5012773;28;20100;-57
2023/01/27 08:39:34;;;;;;;32.17;13.77;;;;;;;-144.31;100.00;58022.63;5015154;28;20465;-55
2023/01/27 08:43:00;;;;;;;41.78;18.90;;;;;;;-144.31;100.00;58022.63;5014948;28;20099;-54
2023/01/27 08:46:24;;;;;;;35.53;15.02;;;;;;;-144.31;100.00;58022.63;5011648;28;20046;-54
2023/01/27 08:49:48;;;;;;;36.95;15.02;;;;;;;-144.31;100.00;58022.63;5018992;28;20361;-54
2023/01/27 08:53:12;;;;;;;31.77;14.27;;;;;;;-144.31;100.00;58022.63;5012582;28;21338;-54
2023/01/27 08:56:36;;;;;;;30.75;13.57;;;;;;;-144.31;100.00;58022.63;5014432;28;20137;-58
2023/01/27 09:00:00;;;;;;;33.05;14.07;;;;;;;-144.31;100.00;58022.63;5011893;28;20042;-55
2023/01/27 09:03:24;;;;;;;31.20;12.50;;;;;;;-144.31;100.00;58022.63;5008870;28;20094;-56
2023/01/27 09:06:49;;;;;;;33.70;14.63;;;;;;;-144.31;100.00;58022.63;5019684;28;20060;-55
2023/01/27 09:10:14;;;;;;;36.10;14.68;;;;;;;-144.31;100.00;58022.63;5015333;28;20069;-55
2023/01/27 09:13:38;;;;;;;30.70;12.65;;;;;;;-144.31;100.00;58022.63;5014385;28;20069;-50
2023/01/27 09:17:02;;;;;;;31.55;13.00;;;;;;;-144.31;100.00;58022.63;5009346;28;20033;-52
2023/01/27 09:20:26;;;;;;;27.23;11.57;;;;;;;-144.31;100.00;58022.63;5008492;28;20037;-53
2023/01/27 09:23:52;;;;;;;27.13;12.50;;;;;;;-144.31;100.00;58022.63;5011560;28;20039;-54
2023/01/27 09:27:16;;;;;;;26.42;11.57;;;;;;;-144.31;100.00;58022.63;5009538;28;20041;-51
2023/01/27 09:30:40;;;;;;;25.60;11.63;;;;;;;-144.31;100.00;58022.63;5010795;28;20030;-54
2023/01/27 09:34:04;;;;;;;20.27;9.38;;;;;;;-144.31;100.00;58022.63;5013005;28;20403;-52
2023/01/27 09:37:32;;;;;;;18.55;8.52;;;;;;;-144.31;100.00;58022.63;5011176;28;20053;-56
2023/01/27 09:41:17;;;;;;;16.58;8.10;;;;;;;-144.31;100.00;58022.63;5007902;28;20045;-52
2023/01/27 09:45:08;;;;;;;19.13;8.98;;;;;;;-144.31;100.00;58022.63;5012592;28;20055;-55
2023/01/27 09:48:47;;;;;;;19.13;9.05;;;;;;;-144.31;100.00;58022.63;5013191;28;20401;-53
2023/01/27 09:52:27;;;;;;;22.65;9.57;;;;;;;-144.31;100.00;58022.63;5017089;28;20083;-55
2023/01/27 09:55:56;;;;;;;18.35;9.48;;;;;;;-144.31;100.00;58022.63;5010183;28;20448;-54
2023/01/27 09:59:36;;;;;;;21.65;9.93;;;;;;;-144.31;100.00;58022.63;5011897;28;20092;-53
2023/01/27 10:03:36;;;;;;;18.85;9.23;;;;;;;-144.31;100.00;58022.63;5009556;28;20033;-57
2023/01/27 10:07:34;;;;;;;19.58;9.52;;;;;;;-144.31;100.00;58022.63;5011355;28;20045;-53
2023/01/27 10:11:10;;;;;;;19.35;9.82;;;;;;;-144.31;100.00;58022.63;5022883;28;20068;-51
2023/01/27 10:14:52;;;;;;;20.58;9.27;;;;;;;-144.31;100.00;58022.63;5009997;28;20045;-58
2023/01/27 10:18:36;;;;;;;19.95;10.23;;;;;;;-144.31;100.00;58022.63;5011361;28;20033;-57
2023/01/27 10:22:23;;;;;;;19.20;9.13;;;;;;;-144.31;100.00;58022.63;5012805;28;20414;-54
2023/01/27 10:26:11;;;;;;;22.65;10.60;;;;;;;-144.31;100.00;58022.63;5011352;28;20045;-57
2023/01/27 10:29:53;;;;;;;25.90;10.70;;;;;;;-144.31;100.00;58022.63;5012266;28;20069;-60
2023/01/27 10:33:48;;;;;;;25.98;11.40;;;;;;;-144.31;100.00;58022.63;5018702;28;20037;-48
2023/01/27 10:37:28;;;;;;;26.40;12.47;;;;;;;-144.31;100.00;58022.63;5014659;28;20777;-50
2023/01/27 10:41:20;;;;;;;27.67;11.57;;;;;;;-144.31;100.00;58022.63;5011027;28;20040;-54
2023/01/27 10:44:59;;;;;;;27.50;13.00;;;;;;;-144.31;100.00;58022.63;5011994;28;20444;-57
2023/01/27 10:48:35;;;;;;;29.92;13.30;;;;;;;-144.31;100.00;58022.63;5021589;28;20049;-58
2023/01/27 10:52:04;;;;;;;;;;;;;;;-144.31;100.00;58022.63;5015568;28;20410;-56
2023/01/27 10:55:37;;;;;;;29.02;12.20;;;;;;;-144.31;100.00;58022.63;5013449;28;20008;-59
2023/01/27 10:59:15;;;;;;;33.60;13.43;;;;;;;-144.31;100.00;58022.63;5011802;28;20171;-57
2023/01/27 11:03:05;;;;;;;31.25;13.70;;;;;;;-144.31;100.00;58022.63;5013431;28;20033;-57
2023/01/27 11:06:34;;;;;;;29.60;13.48;;;;;;;-144.31;100.00;58022.63;5015550;28;20038;-56
2023/01/27 11:10:18;;;;;;;30.75;12.65;;;;;;;-144.31;100.00;58022.63;5015225;28;20037;-55
2023/01/27 11:13:45;;;;;;;28.08;13.07;;;;;;;-144.31;100.00;58022.63;5013103;28;20053;-56
2023/01/27 11:17:30;;;;;;;33.00;13.30;;;;;;;-144.31;100.00;58022.63;5013474;28;20133;-56
2023/01/27 11:21:00;;;;;;;33.33;13.77;;;;;;;-144.31;100.00;58022.63;5015537;28;20037;-56
2023/01/27 11:24:29;;;;;;;31.30;14.00;;;;;;;-144.31;100.00;58022.63;5010499;28;20072;-54
2023/01/27 11:27:59;;;;;;;36.42;15.15;;;;;;;-144.31;100.00;58022.63;5013869;28;20521;-58
2023/01/27 11:32:00;;;;;;;38.15;15.60;;;;;;;-144.31;100.00;58022.63;5017484;28;20063;-59
2023/01/27 11:35:45;;;;;;;38.53;15.73;;;;;;;-144.31;100.00;58022.63;5012989;28;20200;-55
2023/01/27 11:39:14;;;;;;;41.10;16.37;;;;;;;-144.31;100.00;58022.63;5010631;28;20088;-57
2023/01/27 11:42:40;;;;;;;35.00;15.52;;;;;;;-144.31;100.00;58022.63;5013109;28;20061;-52
2023/01/27 11:46:06;;;;;;;39.17;16.40;;;;;;;-144.31;100.00;58022.63;5013036;28;20036;-57
2023/01/27 11:49:43;;;;;;;33.72;16.02;;;;;;;-144.31;100.00;58022.63;5014246;28;20050;-56
2023/01/27 11:53:15;;;;;;;37.90;15.85;;;;;;;-144.31;100.00;58022.63;5013834;28;20041;-57
2023/01/27 11:56:43;;;;;;;32.70;14.40;;;;;;;-144.31;100.00;58022.63;5010905;28;20037;-59
2023/01/27 12:00:20;;;;;;;38.42;16.20;;;;;;;-144.31;100.00;58022.63;5012612;28;20092;-58
2023/01/27 12:03:58;;;;;;;45.03;17.77;;;;;;;-144.31;100.00;58022.63;5010956;28;20045;-57
2023/01/27 12:07:56;;;;;;;36.47;16.45;;;;;;;-144.31;100.00;58022.63;5013584;28;20770;-60
2023/01/27 12:11:20;;;;;;;37.40;16.05;;;;;;;-144.31;100.00;58022.63;5012925;28;20538;-61
2023/01/27 12:14:57;;;;;;;36.95;16.08;;;;;;;-144.31;100.00;58022.63;5012904;28;20549;-60
2023/01/27 12:18:24;;;;;;;37.22;16.38;;;;;;;-144.31;100.00;58022.63;5011668;28;20048;-54
2023/01/27 12:22:01;;;;;;;44.25;17.77;;;;;;;-144.31;100.00;58022.63;5008102;28;20048;-58
2023/01/27 12:25:30;;;;;;;46.08;21.60;;;;;;;-144.31;100.00;58022.63;5014253;28;20062;-55
2023/01/27 12:29:06;;;;;;;43.72;18.58;;;;;;;-144.31;100.00;58022.63;5012105;28;20727;-58
2023/01/27 12:32:41;;;;;;;39.35;17.63;;;;;;;-144.31;100.00;58022.63;5011600;28;20298;-57
2023/01/27 12:36:17;;;;;;;47.20;21.17;;;;;;;-144.31;100.00;58022.63;5019749;28;20046;-53
2023/01/27 12:39:47;;;;;;;41.17;17.67;;;;;;;-144.31;100.00;58022.63;5015461;28;20092;-54
2023/01/27 12:43:48;;;;;;;45.97;19.08;;;;;;;-144.31;100.00;58022.63;5014344;28;20117;-57
2023/01/27 12:47:23;;;;;;;42.55;17.77;;;;;;;-144.31;100.00;58022.63;5021567;28;20041;-54
2023/01/27 12:50:49;;;;;;;38.05;17.77;;;;;;;-144.31;100.00;58022.63;5016393;28;20042;-56
2023/01/27 12:54:26;;;;;;;43.20;18.65;;;;;;;-144.31;100.00;58022.63;5019116;28;20065;-57
2023/01/27 12:57:51;;;;;;;38.50;17.23;;;;;;;-144.31;100.00;58022.63;5015286;28;20073;-53
2023/01/27 13:01:48;;;;;;;32.67;15.60;;;;;;;-144.31;100.00;58022.63;5014957;28;20490;-57
2023/01/27 13:05:15;;;;;;;37.92;17.08;;;;;;;-144.31;100.00;58022.63;4989351;28;20283;-57
2023/01/27 13:08:45;;;;;;;38.00;15.70;;;;;;;-144.31;100.00;58022.63;5014415;28;20092;-55
2023/01/27 13:12:10;;;;;;;35.03;15.57;;;;;;;-144.31;100.00;58022.63;5016356;28;20048;-54
2023/01/27 13:15:50;;;;;;;40.03;17.45;;;;;;;-144.31;100.00;58022.63;5014411;28;20050;-53
2023/01/27 13:19:18;;;;;;;32.88;14.80;;;;;;;-144.31;100.00;58022.63;5012906;28;20479;-53
2023/01/27 13:22:48;;;;;;;36.85;16.95;;;;;;;-144.31;100.00;58022.63;5011356;28;20042;-56
2023/01/27 13:26:21;;;;;;;34.75;16.17;;;;;;;-144.31;100.00;58022.63;5013883;28;20099;-54
2023/01/27 13:29:54;;;;;;;32.83;15.73;;;;;;;-144.31;100.00;58022.63;5014222;28;20083;-57
2023/01/27 13:33:47;;;;;;;29.38;14.10;;;;;;;-144.31;100.00;58022.63;5021079;28;20187;-59
2023/01/27 13:37:47;;;;;;;33.15;15.48;;;;;;;-144.31;100.00;58022.63;5011303;28;20102;-52
2023/01/27 13:41:19;;;;;;;31.55;14.50;;;;;;;-144.31;100.00;58022.63;5010294;28;20148;-54
2023/01/27 13:44:59;;;;;;;33.63;14.88;;;;;;;-144.31;100.00;58022.63;5010663;28;20041;-56
2023/01/27 13:48:46;;;;;;;31.33;16.17;;;;;;;-144.31;100.00;58022.63;5008204;28;20034;-58
2023/01/27 13:52:17;;;;;;;34.58;17.05;;;;;;;-144.31;100.00;58022.63;5008536;28;20050;-54
2023/01/27 13:55:46;;;;;;;29.17;13.52;;;;;;;-144.31;100.00;58022.63;5011382;28;20033;-55
2023/01/27 13:59:30;;;;;;;27.80;14.70;;;;;;;-144.31;100.00;58022.63;5010935;28;20053;-54
2023/01/27 14:03:19;;;;;;;26.75;14.75;;;;;;;-144.31;100.00;58022.63;5006549;28;20046;-56
2023/01/27 14:07:24;;;;;;;29.60;15.40;;;;;;;-144.31;100.00;58022.63;5010465;28;20026;-54
2023/01/27 14:11:03;;;;;;;29.45;14.32;;;;;;;-144.31;100.00;58022.63;5008733;28;20056;-55
2023/01/27 14:15:02;;;;;;;38.05;17.10;;;;;;;-144.31;100.00;58022.63;5007828;28;20046;-57
2023/01/27 14:18:43;;;;;;;30.05;14.30;;;;;;;-144.31;100.00;58022.63;5011620;28;20044;-54
2023/01/27 14:22:41;;;;;;;32.17;15.02;;;;;;;-144.31;100.00;58022.63;5014200;28;20495;-56
2023/01/27 14:26:20;;;;;;;28.63;14.30;;;;;;;-144.31;100.00;58022.63;5020490;28;20045;-58
2023/01/27 14:30:11;;;;;;;27.55;13.35;;;;;;;-144.31;100.00;58022.63;5016914;28;20057;-53
2023/01/27 14:33:56;;;;;;;25.67;13.07;;;;;;;-144.31;100.00;58022.63;5015561;28;20042;-54
2023/01/27 14:37:43;;;;;;;25.67;13.98;;;;;;;-144.31;100.00;58022.63;5016180;28;20550;-56
2023/01/27 14:41:25;;;;;;;23.40;12.80;;;;;;;-144.31;100.00;58022.63;5013757;28;20471;-54
2023/01/27 14:45:03;;;;;;;26.90;13.07;;;;;;;-144.31;100.00;58022.63;5012879;28;20037;-58
2023/01/27 14:49:10;;;;;;;23.70;13.25;;;;;;;-144.31;100.00;58022.63;5013492;28;20076;-53
2023/01/27 14:52:48;;;;;;;27.27;14.30;;;;;;;-144.31;100.00;58022.63;5014982;28;20042;-50
2023/01/27 14:56:24;;;;;;;23.13;11.45;;;;;;;-144.31;100.00;58022.63;5012833;28;20037;-56
2023/01/27 14:59:51;;;;;;;21.60;12.30;;;;;;;-144.31;100.00;58022.63;5020983;28;20619;-58
2023/01/27 15:03:21;;;;;;;20.10;11.35;;;;;;;-144.31;100.00;58022.63;5015069;28;20099;-56
2023/01/27 15:07:10;;;;;;;23.63;12.57;;;;;;;-144.31;100.00;58022.63;5013365;28;20095;-54
2023/01/27 15:10:39;;;;;;;22.45;12.02;;;;;;;-144.31;100.00;58022.63;5011944;28;20038;-60
2023/01/27 15:14:25;;;;;;;21.02;11.32;;;;;;;-144.31;100.00;58022.63;5010073;28;20045;-57
2023/01/27 15:18:17;;;;;;;22.63;11.20;;;;;;;-144.31;100.00;58022.63;5014459;28;20478;-55
2023/01/27 15:21:59;;;;;;;25.35;13.20;;;;;;;-144.31;100.00;58022.63;5021480;28;20045;-54
2023/01/27 15:25:41;;;;;;;25.40;13.13;;;;;;;-144.31;100.00;58022.63;5013378;28;20437;-55
2023/01/27 15:29:14;;;;;;;22.38;11.98;;;;;;;-144.31;100.00;58022.63;5013722;28;20033;-56
2023/01/27 15:32:38;;;;;;;23.98;11.40;;;;;;;-144.31;100.00;58022.63;5011881;28;20046;-57
2023/01/27 15:36:26;;;;;;;24.20;13.00;;;;;;;-144.31;100.00;58022.63;5011895;28;20129;-56
2023/01/27 15:40:14;;;;;;;32.03;19.02;;;;;;;-144.31;100.00;58022.63;5013712;28;20030;-55
2023/01/27 15:44:02;;;;;;;26.02;14.35;;;;;;;-144.31;100.00;58022.63;5020321;28;20041;-57
2023/01/27 15:47:35;;;;;;;20.65;11.50;;;;;;;-144.31;100.00;58022.63;5018035;28;20116;-52
2023/01/27 15:51:03;;;;;;;20.60;10.98;;;;;;;-144.31;100.00;58022.63;5010761;28;20394;-58
2023/01/27 15:54:30;;;;;;;28.05;14.82;;;;;;;-144.31;100.00;58022.63;5015976;28;20061;-53
2023/01/27 15:58:04;;;;;;;26.88;13.75;;;;;;;-144.31;100.00;58022.63;5014409;28;20785;-54
2023/01/27 16:01:39;;;;;;;22.30;11.25;;;;;;;-144.31;100.00;58022.63;5013069;28;20044;-55
2023/01/27 16:05:03;;;;;;;23.37;11.60;;;;;;;-144.31;100.00;58022.63;5009804;28;20034;-57
2023/01/27 16:08:37;;;;;;;18.92;11.38;;;;;;;-144.31;100.00;58022.63;5013550;28;20786;-54
2023/01/27 16:12:23;;;;;;;20.92;11.05;;;;;;;-144.31;100.00;58022.63;5014638;28;20046;-56
2023/01/27 16:16:16;;;;;;;21.02;10.63;;;;;;;-144.31;100.00;58022.63;5014187;28;20045;-58
2023/01/27 16:20:20;;;;;;;20.17;10.88;;;;;;;-144.31;100.00;58022.63;5012706;28;20472;-59